createdAt,value
2018-05-10T00:00:33.948Z,62.81
2018-05-10T00:01:39.730Z,62.90
2018-05-10T00:02:46.275Z,62.84
2018-05-10T00:03:51.826Z,62.79
2018-05-10T00:04:58.379Z,62.83
2018-05-10T00:06:04.160Z,62.87
2018-05-10T00:07:09.721Z,62.99
2018-05-10T00:08:15.483Z,63.24
2018-05-10T00:09:21.272Z,63.47
2018-05-10T00:10:27.052Z,63.51
2018-05-10T00:11:32.823Z,63.49
2018-05-10T00:12:38.594Z,63.39
2018-05-10T00:13:45.371Z,63.61
2018-05-10T00:14:51.149Z,63.55
2018-05-10T00:15:56.920Z,63.69
2018-05-10T00:17:02.693Z,63.76
2018-05-10T00:18:08.457Z,63.62
2018-05-10T00:19:14.231Z,63.64
2018-05-10T00:20:20.024Z,63.62
2018-05-10T00:21:25.800Z,63.66
2018-05-10T00:22:31.790Z,63.70
2018-05-10T00:23:38.335Z,63.67
2018-05-10T00:24:44.140Z,63.53
2018-05-10T00:25:49.925Z,63.34
2018-05-10T00:26:56.461Z,63.26
2018-05-10T00:28:02.005Z,63.20
2018-05-10T00:29:07.776Z,63.21
2018-05-10T00:30:14.076Z,63.21
2018-05-10T00:31:19.870Z,63.11
2018-05-10T00:32:26.403Z,63.05
2018-05-10T00:33:32.176Z,63.05
2018-05-10T00:34:38.711Z,63.16
2018-05-10T00:35:44.484Z,63.24
2018-05-10T00:36:51.027Z,63.27
2018-05-10T00:37:57.563Z,63.38
2018-05-10T00:39:03.635Z,63.36
2018-05-10T00:40:09.394Z,63.40
2018-05-10T00:41:15.179Z,63.46
2018-05-10T00:42:20.971Z,63.66
2018-05-10T00:43:26.746Z,63.92
2018-05-10T00:44:32.515Z,64.05
2018-05-10T00:45:38.279Z,64.15
2018-05-10T00:46:44.039Z,64.18
2018-05-10T00:47:50.594Z,64.15
2018-05-10T00:48:57.128Z,64.26
2018-05-10T00:50:03.059Z,64.27
2018-05-10T00:51:08.860Z,64.34
2018-05-10T00:52:15.580Z,64.51
2018-05-10T00:53:21.375Z,64.71
2018-05-10T00:54:43.935Z,64.70
2018-05-10T00:55:49.711Z,64.75
2018-05-10T00:56:55.476Z,64.84
2018-05-10T00:58:01.257Z,64.88
2018-05-10T00:59:07.239Z,64.83
2018-05-10T01:00:13.776Z,64.92
2018-05-10T01:01:19.550Z,65.00
2018-05-10T01:02:25.868Z,65.01
2018-05-10T01:03:31.683Z,65.09
2018-05-10T01:04:37.447Z,65.09
2018-05-10T01:05:43.211Z,65.24
2018-05-10T01:06:49.047Z,65.52
2018-05-10T01:07:54.819Z,65.47
2018-05-10T01:09:01.376Z,65.50
2018-05-10T01:10:07.669Z,65.79
2018-05-10T01:11:13.436Z,65.76
2018-05-10T01:12:19.449Z,65.89
2018-05-10T01:13:25.218Z,65.96
2018-05-10T01:14:31.017Z,66.17
2018-05-10T01:15:37.599Z,66.38
2018-05-10T01:16:43.389Z,66.69
2018-05-10T01:17:49.589Z,66.95
2018-05-10T01:18:55.348Z,67.07
2018-05-10T01:20:01.164Z,67.16
2018-05-10T01:21:06.943Z,67.21
2018-05-10T01:22:12.467Z,67.30
2018-05-10T01:23:18.248Z,67.26
2018-05-10T01:24:25.523Z,67.43
2018-05-10T01:25:31.316Z,67.61
2018-05-10T01:26:37.093Z,67.80
2018-05-10T01:27:42.866Z,68.01
2018-05-10T01:28:48.640Z,68.20
2018-05-10T01:29:54.408Z,68.32
2018-05-10T01:31:00.200Z,68.25
2018-05-10T01:32:06.726Z,68.36
2018-05-10T01:33:12.490Z,68.54
2018-05-10T01:34:19.032Z,68.57
2018-05-10T01:35:41.659Z,68.63
2018-05-10T01:36:47.444Z,68.85
2018-05-10T01:37:53.987Z,68.89
2018-05-10T01:39:00.077Z,68.79
2018-05-10T01:40:05.851Z,68.71
2018-05-10T01:41:11.619Z,68.74
2018-05-10T01:42:18.170Z,68.72
2018-05-10T01:43:23.935Z,68.72
2018-05-10T01:44:30.471Z,68.76
2018-05-10T01:45:36.234Z,68.88
2018-05-10T01:46:41.999Z,68.91
2018-05-10T01:47:47.789Z,68.92
2018-05-10T01:48:53.548Z,69.06
2018-05-10T01:49:59.412Z,69.10
2018-05-10T01:51:05.604Z,69.28
2018-05-10T01:52:11.399Z,69.34
2018-05-10T01:53:17.951Z,69.29
2018-05-10T01:54:24.486Z,69.37
2018-05-10T01:55:30.261Z,69.42
2018-05-10T01:56:36.799Z,69.47
2018-05-10T01:57:42.568Z,69.46
2018-05-10T01:58:49.130Z,69.80
2018-05-10T01:59:55.655Z,69.93
2018-05-10T02:01:02.269Z,69.94
2018-05-10T02:02:08.032Z,70.00
2018-05-10T02:03:13.802Z,70.01
2018-05-10T02:04:21.102Z,70.15
2018-05-10T02:05:27.642Z,70.26
2018-05-10T02:06:33.399Z,70.17
2018-05-10T02:07:39.162Z,70.40
2018-05-10T02:08:44.938Z,70.39
2018-05-10T02:09:50.709Z,70.49
2018-05-10T02:10:56.484Z,70.44
2018-05-10T02:12:02.793Z,70.60
2018-05-10T02:13:08.568Z,70.87
2018-05-10T02:14:15.106Z,71.04
2018-05-10T02:15:20.892Z,71.19
2018-05-10T02:16:26.662Z,71.34
2018-05-10T02:17:32.427Z,71.32
2018-05-10T02:18:38.186Z,71.27
2018-05-10T02:19:43.951Z,71.43
2018-05-10T02:20:49.749Z,71.74
2018-05-10T02:21:55.526Z,71.90
2018-05-10T02:23:02.051Z,71.99
2018-05-10T02:24:07.825Z,72.08
2018-05-10T02:25:13.581Z,72.08
2018-05-10T02:26:19.370Z,72.21
2018-05-10T02:27:25.140Z,72.26
2018-05-10T02:28:30.909Z,72.33
2018-05-10T02:29:36.754Z,72.21
2018-05-10T02:30:42.656Z,72.36
2018-05-10T02:31:48.449Z,72.44
2018-05-10T02:32:54.206Z,72.54
2018-05-10T02:33:59.984Z,72.56
2018-05-10T02:35:05.513Z,72.79
2018-05-10T02:36:11.281Z,72.87
2018-05-10T02:37:17.071Z,72.99
2018-05-10T02:38:22.841Z,73.17
2018-05-10T02:39:28.611Z,73.12
2018-05-10T02:40:35.141Z,73.12
2018-05-10T02:41:40.901Z,73.30
2018-05-10T02:42:46.689Z,73.36
2018-05-10T02:43:52.447Z,73.42
2018-05-10T02:44:58.245Z,73.40
2018-05-10T02:46:03.951Z,73.57
2018-05-10T02:47:09.731Z,73.53
2018-05-10T02:48:16.285Z,73.62
2018-05-10T02:49:22.838Z,73.72
2018-05-10T02:50:29.373Z,73.77
2018-05-10T02:51:35.136Z,73.72
2018-05-10T02:52:41.659Z,73.63
2018-05-10T02:53:47.439Z,73.64
2018-05-10T02:54:53.207Z,73.75
2018-05-10T02:55:58.962Z,73.76
2018-05-10T02:57:04.239Z,73.69
2018-05-10T02:58:10.005Z,73.70
2018-05-10T02:59:16.566Z,73.58
2018-05-10T03:00:23.087Z,73.53
2018-05-10T03:01:28.855Z,73.49
2018-05-10T03:02:35.392Z,73.57
2018-05-10T03:03:41.167Z,73.62
2018-05-10T03:04:47.727Z,73.68
2018-05-10T03:05:54.243Z,73.90
2018-05-10T03:07:00.006Z,73.84
2018-05-10T03:08:05.962Z,73.97
2018-05-10T03:09:12.247Z,74.13
2018-05-10T03:10:18.035Z,74.26
2018-05-10T03:11:23.801Z,74.23
2018-05-10T03:12:29.677Z,74.22
2018-05-10T03:13:35.434Z,74.24
2018-05-10T03:14:41.203Z,74.34
2018-05-10T03:15:46.996Z,74.46
2018-05-10T03:16:52.451Z,74.51
2018-05-10T03:17:58.211Z,74.42
2018-05-10T03:19:03.963Z,74.44
2018-05-10T03:20:09.739Z,74.48
2018-05-10T03:21:16.292Z,74.52
2018-05-10T03:22:22.847Z,74.73
2018-05-10T03:23:28.604Z,74.92
2018-05-10T03:24:35.126Z,74.92
2018-05-10T03:25:40.662Z,74.81
2018-05-10T03:26:46.447Z,74.69
2018-05-10T03:27:52.975Z,74.72
2018-05-10T03:28:58.413Z,74.81
2018-05-10T03:30:03.966Z,74.98
2018-05-10T03:31:10.635Z,75.03
2018-05-10T03:32:17.168Z,75.16
2018-05-10T03:33:22.963Z,75.45
2018-05-10T03:34:30.030Z,75.69
2018-05-10T03:35:35.791Z,75.84
2018-05-10T03:36:40.906Z,75.79
2018-05-10T03:37:46.705Z,75.83
2018-05-10T03:38:53.970Z,75.84
2018-05-10T03:39:59.736Z,76.02
2018-05-10T03:41:06.275Z,76.01
2018-05-10T03:42:12.044Z,75.93
2018-05-10T03:43:18.605Z,75.97
2018-05-10T03:44:24.899Z,75.91
2018-05-10T03:45:30.666Z,75.86
2018-05-10T03:46:36.771Z,75.75
2018-05-10T03:47:42.534Z,75.63
2018-05-10T03:48:48.327Z,75.79
2018-05-10T03:49:54.864Z,75.83
2018-05-10T03:51:00.619Z,75.65
2018-05-10T03:52:07.155Z,75.46
2018-05-10T03:53:12.939Z,75.37
2018-05-10T03:54:18.722Z,75.17
2018-05-10T03:55:24.493Z,75.11
2018-05-10T03:56:30.239Z,75.00
2018-05-10T03:57:36.015Z,74.83
2018-05-10T03:58:41.779Z,74.67
2018-05-10T03:59:47.612Z,74.61
2018-05-10T04:00:53.367Z,74.54
2018-05-10T04:01:59.127Z,74.39
2018-05-10T04:05:23.543Z,74.09
2018-05-10T04:06:47.070Z,73.95
2018-05-10T04:08:09.843Z,73.94
2018-05-10T04:09:32.458Z,73.75
2018-05-10T04:10:55.157Z,73.59
2018-05-10T04:12:00.926Z,73.56
2018-05-10T04:13:06.692Z,73.59
2018-05-10T04:14:12.456Z,73.55
2018-05-10T04:15:18.982Z,73.62
2018-05-10T04:16:24.887Z,73.69
2018-05-10T04:17:30.643Z,73.65
2018-05-10T04:18:36.419Z,73.65
2018-05-10T04:19:42.236Z,73.78
2018-05-10T04:20:48.007Z,73.78
2018-05-10T04:21:53.794Z,73.71
2018-05-10T04:22:59.579Z,73.65
2018-05-10T04:24:05.417Z,73.54
2018-05-10T04:25:11.240Z,73.52
2018-05-10T04:26:16.868Z,73.49
2018-05-10T04:27:22.701Z,73.55
2018-05-10T04:28:28.513Z,73.50
2018-05-10T04:29:34.284Z,73.43
2018-05-10T04:30:40.800Z,73.31
2018-05-10T04:31:46.567Z,73.18
2018-05-10T04:32:53.124Z,73.37
2018-05-10T04:33:59.660Z,73.35
2018-05-10T04:35:05.427Z,73.48
2018-05-10T04:36:11.726Z,73.49
2018-05-10T04:37:17.495Z,73.46
2018-05-10T04:38:23.301Z,73.44
2018-05-10T04:39:29.136Z,73.33
2018-05-10T04:40:34.895Z,73.33
2018-05-10T04:41:40.651Z,73.41
2018-05-10T04:42:46.419Z,73.44
2018-05-10T04:43:52.973Z,73.53
2018-05-10T04:44:58.735Z,73.62
2018-05-10T04:46:05.283Z,73.66
2018-05-10T04:47:11.043Z,73.79
2018-05-10T04:48:17.584Z,73.83
2018-05-10T04:49:24.883Z,73.94
2018-05-10T04:50:31.424Z,74.13
2018-05-10T04:51:37.967Z,74.21
2018-05-10T04:52:43.537Z,74.50
2018-05-10T04:53:50.055Z,74.55
2018-05-10T04:54:55.842Z,74.89
2018-05-10T04:56:02.374Z,75.03
2018-05-10T04:57:08.135Z,75.08
2018-05-10T04:58:14.661Z,75.07
2018-05-10T04:59:20.436Z,74.92
2018-05-10T05:00:26.997Z,74.84
2018-05-10T05:01:33.534Z,74.81
2018-05-10T05:02:39.297Z,74.80
2018-05-10T05:03:45.832Z,74.71
2018-05-10T05:04:51.592Z,74.70
2018-05-10T05:05:58.141Z,74.61
2018-05-10T05:07:03.895Z,74.47
2018-05-10T05:08:10.435Z,74.37
2018-05-10T05:09:16.188Z,74.28
2018-05-10T05:10:21.943Z,74.16
2018-05-10T05:11:28.495Z,74.22
2018-05-10T05:12:34.256Z,74.12
2018-05-10T05:13:40.787Z,73.98
2018-05-10T05:14:46.550Z,73.96
2018-05-10T05:15:53.079Z,73.89
2018-05-10T05:16:58.871Z,73.84
2018-05-10T05:18:04.626Z,73.71
2018-05-10T05:19:10.151Z,73.67
2018-05-10T05:20:15.932Z,73.77
2018-05-10T05:21:21.695Z,73.64
2018-05-10T05:22:27.477Z,73.83
2018-05-10T05:23:33.243Z,73.74
2018-05-10T05:24:38.999Z,73.57
2018-05-10T05:25:44.767Z,73.46
2018-05-10T05:26:50.618Z,73.29
2018-05-10T05:27:56.541Z,73.13
2018-05-10T05:29:02.296Z,72.92
2018-05-10T05:30:08.075Z,72.81
2018-05-10T05:31:13.839Z,72.70
2018-05-10T05:32:19.613Z,72.61
2018-05-10T05:33:25.398Z,72.48
2018-05-10T05:34:31.166Z,72.37
2018-05-10T05:35:36.976Z,72.16
2018-05-10T05:36:42.928Z,71.87
2018-05-10T05:37:48.909Z,71.65
2018-05-10T05:38:54.699Z,71.52
2018-05-10T05:40:01.280Z,71.54
2018-05-10T05:41:07.063Z,71.57
2018-05-10T05:42:13.101Z,71.44
2018-05-10T05:43:18.925Z,71.29
2018-05-10T05:44:25.651Z,71.24
2018-05-10T05:45:32.188Z,71.05
2018-05-10T05:46:37.950Z,71.08
2018-05-10T05:47:43.705Z,70.95
2018-05-10T05:48:50.339Z,70.81
2018-05-10T05:49:56.119Z,70.63
2018-05-10T05:51:01.967Z,70.53
2018-05-10T05:52:07.743Z,70.35
2018-05-10T05:53:13.529Z,70.03
2018-05-10T05:54:19.292Z,69.79
2018-05-10T05:55:25.101Z,69.50
2018-05-10T05:56:31.068Z,69.39
2018-05-10T05:57:37.592Z,69.33
2018-05-10T05:58:44.869Z,69.21
2018-05-10T05:59:50.635Z,69.14
2018-05-10T06:00:57.238Z,69.21
2018-05-10T06:02:03.964Z,69.14
2018-05-10T06:03:10.501Z,68.94
2018-05-10T06:04:16.392Z,68.48
2018-05-10T06:05:22.159Z,68.39
2018-05-10T06:06:27.959Z,68.21
2018-05-10T06:07:34.501Z,67.94
2018-05-10T06:08:40.310Z,67.61
2018-05-10T06:09:46.274Z,67.30
2018-05-10T06:10:52.041Z,67.22
2018-05-10T06:11:58.598Z,67.16
2018-05-10T06:13:05.133Z,67.07
2018-05-10T06:14:10.903Z,66.93
2018-05-10T06:15:17.440Z,66.78
2018-05-10T06:16:23.213Z,66.27
2018-05-10T06:17:29.788Z,65.80
2018-05-10T06:18:35.561Z,64.70
2018-05-10T06:19:41.324Z,63.89
2018-05-10T06:20:47.101Z,62.56
2018-05-10T06:21:52.867Z,60.75
2018-05-10T06:22:58.643Z,59.42
2018-05-10T06:24:04.206Z,58.58
2018-05-10T06:25:11.047Z,57.33
2018-05-10T06:26:16.759Z,55.90
2018-05-10T06:27:22.523Z,54.41
2018-05-10T06:28:28.320Z,53.27
2018-05-10T06:29:35.092Z,52.19
2018-05-10T06:30:40.856Z,50.84
2018-05-10T06:31:46.631Z,49.58
2018-05-10T06:32:52.408Z,48.45
2018-05-10T06:33:59.000Z,47.30
2018-05-10T06:35:05.718Z,46.61
2018-05-10T06:36:12.820Z,45.47
2018-05-10T06:37:18.604Z,44.26
2018-05-10T06:38:24.378Z,43.54
2018-05-10T06:39:30.937Z,42.89
2018-05-10T06:40:37.322Z,42.14
2018-05-10T06:41:43.168Z,41.11
2018-05-10T06:42:48.944Z,40.44
2018-05-10T06:43:54.735Z,39.63
2018-05-10T06:45:00.549Z,38.39
2018-05-10T06:46:06.693Z,37.04
2018-05-10T06:47:13.252Z,36.35
2018-05-10T06:48:20.547Z,35.83
2018-05-10T06:49:26.880Z,35.47
2018-05-10T06:50:32.676Z,34.87
2018-05-10T06:51:38.439Z,34.34
2018-05-10T06:52:44.209Z,33.82
2018-05-10T06:53:49.986Z,33.03
2018-05-10T06:54:56.280Z,31.93
2018-05-10T06:56:02.064Z,31.89
2018-05-10T06:57:08.610Z,32.05
2018-05-10T06:58:14.370Z,31.73
2018-05-10T06:59:20.908Z,31.14
2018-05-10T07:00:26.679Z,31.01
2018-05-10T07:01:33.243Z,31.11
2018-05-10T07:02:39.781Z,31.18
2018-05-10T07:03:45.555Z,31.18
2018-05-10T07:04:50.996Z,30.80
2018-05-10T07:05:56.767Z,30.78
2018-05-10T07:07:02.645Z,30.55
2018-05-10T07:08:09.198Z,30.28
2018-05-10T07:09:16.430Z,29.98
2018-05-10T07:10:23.158Z,29.51
2018-05-10T07:11:29.696Z,29.07
2018-05-10T07:12:36.270Z,28.83
2018-05-10T07:13:42.804Z,28.63
2018-05-10T07:14:48.583Z,28.58
2018-05-10T07:15:55.111Z,28.37
2018-05-10T07:17:00.882Z,28.41
2018-05-10T07:18:07.452Z,28.28
2018-05-10T07:19:13.756Z,28.48
2018-05-10T07:20:19.524Z,28.63
2018-05-10T07:21:26.168Z,29.08
2018-05-10T07:22:31.948Z,29.49
2018-05-10T07:23:38.574Z,29.67
2018-05-10T07:24:44.589Z,29.64
2018-05-10T07:25:50.395Z,29.58
2018-05-10T07:26:56.949Z,29.60
2018-05-10T07:28:02.719Z,29.53
2018-05-10T07:29:08.688Z,29.57
2018-05-10T07:30:14.511Z,30.12
2018-05-10T07:31:20.339Z,30.55
2018-05-10T07:32:26.873Z,30.91
2018-05-10T07:33:32.652Z,31.30
2018-05-10T07:34:39.833Z,31.24
2018-05-10T07:35:45.880Z,31.33
2018-05-10T07:36:51.672Z,31.05
2018-05-10T07:37:58.168Z,30.92
2018-05-10T07:39:03.820Z,30.67
2018-05-10T07:40:09.785Z,30.11
2018-05-10T07:41:15.687Z,29.69
2018-05-10T07:42:22.378Z,29.51
2018-05-10T07:43:28.265Z,29.09
2018-05-10T07:44:34.365Z,28.77
2018-05-10T07:45:40.520Z,28.63
2018-05-10T07:46:46.472Z,28.42
2018-05-10T07:47:52.264Z,27.97
2018-05-10T07:48:58.041Z,27.41
2018-05-10T07:50:03.811Z,26.79
2018-05-10T07:51:09.608Z,26.56
2018-05-10T07:52:16.403Z,26.61
2018-05-10T07:53:22.348Z,26.94
2018-05-10T07:54:28.458Z,27.00
2018-05-10T07:55:34.286Z,26.86
2018-05-10T07:56:40.095Z,26.62
2018-05-10T07:57:45.953Z,26.28
2018-05-10T07:58:51.757Z,25.95
2018-05-10T07:59:58.290Z,25.69
2018-05-10T08:01:04.972Z,25.53
2018-05-10T08:02:11.588Z,25.46
2018-05-10T08:03:17.559Z,25.30
2018-05-10T08:04:24.621Z,25.32
2018-05-10T08:05:31.415Z,25.26
2018-05-10T08:06:37.873Z,25.42
2018-05-10T08:07:43.901Z,25.45
2018-05-10T08:08:49.832Z,25.61
2018-05-10T08:09:56.055Z,25.54
2018-05-10T08:11:02.823Z,25.34
2018-05-10T08:12:10.345Z,25.07
2018-05-10T08:13:17.126Z,24.67
2018-05-10T08:14:23.710Z,24.17
2018-05-10T08:15:29.778Z,23.68
2018-05-10T08:16:35.596Z,23.13
2018-05-10T08:17:41.399Z,22.97
2018-05-10T08:18:47.192Z,22.94
2018-05-10T08:19:52.920Z,22.68
2018-05-10T08:20:58.679Z,22.48
2018-05-10T08:22:06.111Z,22.25
2018-05-10T08:23:14.767Z,22.28
2018-05-10T08:24:22.174Z,21.93
2018-05-10T08:25:28.985Z,21.42
2018-05-10T08:26:34.670Z,21.21
2018-05-10T08:27:48.494Z,21.25
2018-05-10T08:28:56.467Z,20.98
2018-05-10T08:30:02.318Z,20.83
2018-05-10T08:31:08.028Z,21.05
2018-05-10T08:32:14.249Z,20.96
2018-05-10T08:33:19.945Z,21.00
2018-05-10T08:34:27.231Z,21.07
2018-05-10T08:35:32.827Z,20.41
2018-05-10T08:36:38.397Z,20.44
2018-05-10T08:37:44.453Z,20.47
2018-05-10T08:38:51.254Z,20.40
2018-05-10T08:39:56.962Z,20.16
2018-05-10T08:41:02.593Z,19.87
2018-05-10T08:42:09.331Z,19.94
2018-05-10T08:43:14.710Z,20.29
2018-05-10T08:44:20.638Z,20.75
2018-05-10T08:45:27.803Z,20.51
2018-05-10T08:46:33.538Z,20.72
2018-05-10T08:47:39.192Z,20.59
2018-05-10T08:48:45.046Z,20.73
2018-05-10T08:49:50.982Z,20.74
2018-05-10T08:50:56.928Z,20.71
2018-05-10T08:52:02.966Z,20.56
2018-05-10T08:53:08.814Z,20.74
2018-05-10T08:54:16.584Z,21.43
2018-05-10T08:55:23.200Z,22.33
2018-05-10T08:56:29.114Z,22.45
2018-05-10T08:57:34.837Z,22.94
2018-05-10T08:58:40.419Z,23.41
2018-05-10T08:59:46.949Z,23.55
2018-05-10T09:00:52.571Z,23.52
2018-05-10T09:01:58.333Z,23.81
2018-05-10T09:03:05.711Z,23.87
2018-05-10T09:04:11.969Z,24.01
2018-05-10T09:05:17.604Z,24.39
2018-05-10T09:06:23.656Z,24.64
2018-05-10T09:07:29.398Z,24.61
2018-05-10T09:08:37.272Z,24.87
2018-05-10T09:09:43.232Z,24.85
2018-05-10T09:10:49.282Z,25.33
2018-05-10T09:11:55.330Z,25.12
2018-05-10T09:13:01.210Z,25.50
2018-05-10T09:14:06.665Z,26.05
2018-05-10T09:15:12.701Z,26.14
2018-05-10T09:16:18.679Z,26.09
2018-05-10T09:17:25.840Z,26.62
2018-05-10T09:18:32.742Z,26.83
2018-05-10T09:19:38.884Z,26.64
2018-05-10T09:20:45.662Z,26.55
2018-05-10T09:21:51.427Z,26.23
2018-05-10T09:22:57.246Z,26.26
2018-05-10T09:24:03.064Z,26.43
2018-05-10T09:25:09.956Z,26.24
2018-05-10T09:26:15.759Z,25.60
2018-05-10T09:27:22.391Z,25.32
2018-05-10T09:28:28.179Z,24.99
2018-05-10T09:29:34.776Z,24.51
2018-05-10T09:30:40.701Z,23.76
2018-05-10T09:31:46.944Z,23.53
2018-05-10T09:32:52.879Z,23.65
2018-05-10T09:33:59.596Z,24.07
2018-05-10T09:35:05.578Z,23.98
2018-05-10T09:36:12.292Z,23.98
2018-05-10T09:37:18.116Z,23.71
2018-05-10T09:38:25.454Z,23.24
2018-05-10T09:39:31.213Z,22.79
2018-05-10T09:40:37.657Z,22.53
2018-05-10T09:41:43.484Z,21.88
2018-05-10T09:42:49.186Z,21.88
2018-05-10T09:43:54.914Z,22.26
2018-05-10T09:45:00.951Z,22.69
2018-05-10T09:46:06.854Z,22.54
2018-05-10T09:47:13.440Z,22.24
2018-05-10T09:48:19.088Z,22.66
2018-05-10T09:49:24.821Z,22.81
2018-05-10T09:50:30.529Z,23.05
2018-05-10T09:51:37.121Z,22.92
2018-05-10T09:52:43.099Z,22.59
2018-05-10T09:53:49.057Z,22.38
2018-05-10T09:54:54.864Z,22.43
2018-05-10T09:56:00.687Z,22.62
2018-05-10T09:57:06.492Z,22.46
2018-05-10T09:58:12.820Z,21.89
2018-05-10T09:59:18.493Z,21.98
2018-05-10T10:00:29.775Z,22.08
2018-05-10T10:01:36.160Z,22.38
2018-05-10T10:02:41.743Z,22.64
2018-05-10T10:03:47.392Z,22.71
2018-05-10T10:04:52.773Z,22.45
2018-05-10T10:05:58.456Z,22.50
2018-05-10T10:07:04.044Z,22.74
2018-05-10T10:08:10.605Z,23.16
2018-05-10T10:09:18.044Z,24.04
2018-05-10T10:10:23.620Z,24.31
2018-05-10T10:11:29.506Z,24.53
2018-05-10T10:12:35.416Z,24.18
2018-05-10T10:13:41.337Z,23.61
2018-05-10T10:14:47.124Z,23.28
2018-05-10T10:15:53.653Z,22.97
2018-05-10T10:16:59.243Z,23.15
2018-05-10T10:18:05.064Z,23.51
2018-05-10T10:19:11.113Z,23.73
2018-05-10T10:20:16.969Z,23.84
2018-05-10T10:21:23.497Z,23.43
2018-05-10T10:22:31.443Z,23.44
2018-05-10T10:23:37.793Z,23.63
2018-05-10T10:24:43.596Z,24.09
2018-05-10T10:25:50.144Z,24.54
2018-05-10T10:26:56.142Z,25.92
2018-05-10T10:28:01.962Z,26.39
2018-05-10T10:29:09.049Z,26.53
2018-05-10T10:30:15.638Z,26.96
2018-05-10T10:31:21.978Z,27.04
2018-05-10T10:32:28.209Z,26.84
2018-05-10T10:33:36.359Z,26.59
2018-05-10T10:34:42.387Z,26.59
2018-05-10T10:35:48.423Z,26.90
2018-05-10T10:36:54.468Z,27.01
2018-05-10T10:38:00.218Z,26.77
2018-05-10T10:39:05.216Z,27.01
2018-05-10T10:40:11.831Z,27.56
2018-05-10T10:41:18.862Z,28.64
2018-05-10T10:42:24.775Z,28.93
2018-05-10T10:43:30.821Z,29.17
2018-05-10T10:44:36.892Z,29.40
2018-05-10T10:45:42.953Z,29.40
2018-05-10T10:46:48.900Z,29.52
2018-05-10T10:47:54.848Z,29.46
2018-05-10T10:49:00.639Z,29.26
2018-05-10T10:50:07.367Z,29.10
2018-05-10T10:51:14.115Z,29.46
2018-05-10T10:52:20.155Z,29.44
2018-05-10T10:54:43.265Z,29.76
2018-05-10T10:55:49.326Z,29.95
2018-05-10T10:56:56.144Z,30.00
2018-05-10T10:58:02.182Z,30.27
2018-05-10T10:59:08.339Z,30.64
2018-05-10T11:00:15.337Z,30.52
2018-05-10T11:01:23.073Z,30.64
2018-05-10T11:02:28.857Z,30.99
2018-05-10T11:03:36.009Z,31.20
2018-05-10T11:04:42.035Z,31.37
2018-05-10T11:05:48.087Z,31.24
2018-05-10T11:06:55.087Z,31.42
2018-05-10T11:08:01.127Z,31.67
2018-05-10T11:09:06.992Z,31.64
2018-05-10T11:10:13.220Z,31.68
2018-05-10T11:11:19.168Z,31.62
2018-05-10T11:12:26.260Z,31.77
2018-05-10T11:13:32.841Z,32.30
2018-05-10T11:14:38.749Z,32.75
2018-05-10T11:15:44.613Z,32.92
2018-05-10T11:16:50.523Z,33.12
2018-05-10T11:17:57.052Z,33.12
2018-05-10T11:19:02.939Z,33.02
2018-05-10T11:20:08.982Z,32.91
2018-05-10T11:21:15.555Z,32.94
2018-05-10T11:22:21.367Z,33.13
2018-05-10T11:23:28.185Z,33.23
2018-05-10T11:24:34.989Z,33.22
2018-05-10T11:25:42.240Z,33.35
2018-05-10T11:26:48.451Z,33.26
2018-05-10T11:27:54.590Z,33.15
2018-05-10T11:29:01.263Z,33.56
2018-05-10T11:30:07.211Z,33.35
2018-05-10T11:31:13.263Z,32.93
2018-05-10T11:32:19.108Z,33.18
2018-05-10T11:33:25.022Z,33.71
2018-05-10T11:34:31.771Z,33.87
2018-05-10T11:35:38.648Z,33.57
2018-05-10T11:36:45.651Z,33.16
2018-05-10T11:37:51.500Z,33.18
2018-05-10T11:38:57.289Z,33.01
2018-05-10T11:40:06.263Z,32.85
2018-05-10T11:41:12.406Z,33.28
2018-05-10T11:42:18.271Z,33.33
2018-05-10T11:43:24.207Z,32.99
2018-05-10T11:44:30.458Z,32.96
2018-05-10T11:45:38.086Z,33.12
2018-05-10T11:46:44.593Z,33.08
2018-05-10T11:47:50.744Z,32.85
2018-05-10T11:48:57.608Z,32.61
2018-05-10T11:50:04.072Z,32.70
2018-05-10T11:51:10.218Z,33.02
2018-05-10T11:52:16.237Z,32.81
2018-05-10T11:53:22.354Z,32.74
2018-05-10T11:54:28.371Z,32.86
2018-05-10T11:55:34.531Z,32.64
2018-05-10T11:56:40.647Z,32.42
2018-05-10T11:57:46.820Z,32.22
2018-05-10T11:58:52.865Z,31.86
2018-05-10T11:59:59.161Z,31.62
2018-05-10T12:01:05.376Z,31.44
2018-05-10T12:02:11.419Z,31.30
2018-05-10T12:03:17.466Z,31.17
2018-05-10T12:04:24.358Z,31.00
2018-05-10T12:05:30.383Z,31.16
2018-05-10T12:06:37.100Z,31.04
2018-05-10T12:07:43.168Z,31.14
2018-05-10T12:08:49.123Z,31.39
2018-05-10T12:09:55.243Z,31.59
2018-05-10T12:11:01.573Z,31.67
2018-05-10T12:12:07.796Z,31.64
2018-05-10T12:13:13.723Z,31.91
2018-05-10T12:14:21.128Z,31.73
2018-05-10T12:15:27.225Z,31.70
2018-05-10T12:16:34.685Z,31.63
2018-05-10T12:17:41.212Z,31.50
2018-05-10T12:18:47.982Z,31.59
2018-05-10T12:19:54.137Z,31.57
2018-05-10T12:21:00.183Z,31.34
2018-05-10T12:22:06.329Z,31.45
2018-05-10T12:23:13.776Z,31.27
2018-05-10T12:24:20.385Z,31.31
2018-05-10T12:25:26.691Z,31.44
2018-05-10T12:26:32.879Z,32.10
2018-05-10T12:27:38.817Z,31.98
2018-05-10T12:28:46.696Z,32.39
2018-05-10T12:29:53.583Z,32.52
2018-05-10T12:30:59.570Z,32.62
2018-05-10T12:32:05.721Z,32.65
2018-05-10T12:33:11.831Z,32.70
2018-05-10T12:34:17.882Z,32.78
2018-05-10T12:35:23.862Z,32.77
2018-05-10T12:36:29.871Z,32.67
2018-05-10T12:37:35.811Z,32.62
2018-05-10T12:38:42.689Z,32.77
2018-05-10T12:39:48.921Z,32.66
2018-05-10T12:40:56.131Z,32.64
2018-05-10T12:42:02.926Z,32.46
2018-05-10T12:43:08.930Z,32.45
2018-05-10T12:44:14.723Z,32.29
2018-05-10T12:45:20.652Z,32.08
2018-05-10T12:46:26.793Z,32.34
2018-05-10T12:47:33.366Z,32.44
2018-05-10T12:48:39.206Z,32.52
2018-05-10T12:49:45.526Z,32.45
2018-05-10T12:50:51.608Z,32.28
2018-05-10T12:51:57.331Z,32.13
2018-05-10T12:53:03.618Z,32.07
2018-05-10T12:54:09.372Z,32.10
2018-05-10T12:55:15.254Z,32.17
2018-05-10T12:56:21.185Z,32.45
2018-05-10T12:57:27.097Z,32.77
2018-05-10T12:58:33.087Z,32.76
2018-05-10T12:59:39.729Z,32.62
2018-05-10T13:00:45.484Z,32.70
2018-05-10T13:01:52.162Z,32.73
2018-05-10T13:02:58.048Z,32.84
2018-05-10T13:04:04.091Z,32.87
2018-05-10T13:05:10.115Z,32.70
2018-05-10T13:06:15.922Z,32.80
2018-05-10T13:07:22.387Z,32.77
2018-05-10T13:08:28.262Z,32.61
2018-05-10T13:09:34.358Z,32.45
2018-05-10T13:10:40.241Z,32.47
2018-05-10T13:11:48.101Z,32.07
2018-05-10T13:12:55.178Z,32.11
2018-05-10T13:14:01.455Z,32.05
2018-05-10T13:15:07.607Z,31.82
2018-05-10T13:16:13.794Z,31.98
2018-05-10T13:17:20.011Z,31.88
2018-05-10T13:18:26.813Z,31.70
2018-05-10T13:19:33.671Z,31.46
2018-05-10T13:20:39.828Z,31.18
2018-05-10T13:21:45.884Z,30.93
2018-05-10T13:22:51.909Z,30.71
2018-05-10T13:23:57.683Z,30.51
2018-05-10T13:25:03.644Z,30.15
2018-05-10T13:26:08.935Z,29.79
2018-05-10T13:27:14.712Z,29.13
2018-05-10T13:28:20.706Z,29.08
2018-05-10T13:29:26.484Z,29.26
2018-05-10T13:30:32.246Z,29.35
2018-05-10T13:31:39.511Z,29.42
2018-05-10T13:32:45.302Z,29.26
2018-05-10T13:33:51.072Z,29.12
2018-05-10T13:34:56.871Z,29.01
2018-05-10T13:36:03.404Z,29.07
2018-05-10T13:37:09.170Z,29.14
2018-05-10T13:38:14.952Z,29.00
2018-05-10T13:39:21.649Z,28.83
2018-05-10T13:40:27.499Z,28.54
2018-05-10T13:41:33.267Z,27.99
2018-05-10T13:42:40.045Z,27.37
2018-05-10T13:44:45.741Z,27.66
2018-05-10T13:45:51.531Z,27.72
2018-05-10T13:46:58.216Z,27.84
2018-05-10T13:48:04.056Z,27.89
2018-05-10T13:49:09.967Z,27.89
2018-05-10T13:50:16.495Z,27.82
2018-05-10T13:51:22.294Z,27.83
2018-05-10T13:52:28.133Z,28.04
2018-05-10T13:53:34.417Z,28.64
2018-05-10T13:54:40.195Z,29.33
2018-05-10T13:55:46.072Z,30.12
2018-05-10T13:56:51.849Z,30.69
2018-05-10T13:57:57.608Z,30.98
2018-05-10T13:59:03.462Z,31.30
2018-05-10T14:00:09.421Z,31.55
2018-05-10T14:01:15.185Z,31.79
2018-05-10T14:02:22.302Z,32.80
2018-05-10T14:03:28.255Z,34.59
2018-05-10T14:04:34.090Z,36.83
2018-05-10T14:05:40.766Z,37.94
2018-05-10T14:06:46.515Z,36.74
2018-05-10T14:07:52.108Z,37.11
2018-05-10T14:08:58.789Z,38.10
2018-05-10T14:10:04.673Z,37.91
2018-05-10T14:11:11.260Z,37.33
2018-05-10T14:12:18.035Z,37.62
2018-05-10T14:13:23.833Z,37.28
2018-05-10T14:14:30.389Z,36.44
2018-05-10T14:15:36.244Z,36.72
2018-05-10T14:16:42.076Z,36.64
2018-05-10T14:17:48.657Z,37.67